createdAt,value
2018-03-11T00:01:08.384Z,9.69
2018-03-11T00:03:36.826Z,9.69
2018-03-11T00:06:05.092Z,9.69
2018-03-11T00:08:33.344Z,9.69
2018-03-11T00:11:02.370Z,9.67
2018-03-11T00:13:30.624Z,9.60
2018-03-11T00:15:59.671Z,9.39
2018-03-11T00:18:27.922Z,9.39
2018-03-11T00:20:56.182Z,9.24
2018-03-11T00:23:24.428Z,9.23
2018-03-11T00:25:53.387Z,9.12
2018-03-11T00:28:21.637Z,9.10
2018-03-11T00:30:49.895Z,9.05
2018-03-11T00:33:18.144Z,9.01
2018-03-11T00:35:46.399Z,8.96
2018-03-11T00:38:14.651Z,8.82
2018-03-11T00:40:42.903Z,8.72
2018-03-11T00:43:11.143Z,8.58
2018-03-11T00:45:39.386Z,8.51
2018-03-11T00:48:07.641Z,8.48
2018-03-11T00:50:35.884Z,8.43
2018-03-11T00:53:04.911Z,8.39
2018-03-11T00:55:33.160Z,8.20
2018-03-11T00:58:02.184Z,7.94
2018-03-11T01:00:30.434Z,8.03
2018-03-11T01:02:59.456Z,7.73
2018-03-11T01:05:27.704Z,8.07
2018-03-11T01:07:55.960Z,8.23
2018-03-11T01:10:24.977Z,8.32
2018-03-11T01:12:53.245Z,8.49
2018-03-11T01:15:22.251Z,8.35
2018-03-11T01:17:50.523Z,8.41
2018-03-11T01:20:18.768Z,8.27
2018-03-11T01:22:47.024Z,8.39
2018-03-11T01:25:15.288Z,8.25
2018-03-11T01:27:43.544Z,8.06
2018-03-11T01:30:11.797Z,7.82
2018-03-11T01:32:40.061Z,7.73
2018-03-11T01:35:09.084Z,7.66
2018-03-11T01:37:37.338Z,7.62
2018-03-11T01:40:05.586Z,7.57
2018-03-11T01:42:33.826Z,7.47
2018-03-11T01:45:02.847Z,7.40
2018-03-11T01:47:31.090Z,7.34
2018-03-11T01:49:59.371Z,7.39
2018-03-11T01:52:28.380Z,7.38
2018-03-11T01:54:56.635Z,7.49
2018-03-11T01:57:24.892Z,7.50
2018-03-11T01:59:53.140Z,7.48
2018-03-11T02:02:22.156Z,7.49
2018-03-11T02:04:50.412Z,7.53
2018-03-11T02:07:19.432Z,7.52
2018-03-11T02:09:47.686Z,7.50
2018-03-11T02:12:15.942Z,7.40
2018-03-11T02:14:44.970Z,7.35
2018-03-11T02:17:13.213Z,7.28
2018-03-11T02:19:42.230Z,7.37
2018-03-11T02:22:10.503Z,7.38
2018-03-11T02:24:39.517Z,6.85
2018-03-11T02:27:07.768Z,6.88
2018-03-11T02:29:36.032Z,6.91
2018-03-11T02:32:05.062Z,7.06
2018-03-11T02:34:33.311Z,6.96
2018-03-11T02:37:02.338Z,6.75
2018-03-11T02:39:30.590Z,6.58
2018-03-11T02:41:58.841Z,6.61
2018-03-11T02:44:27.854Z,6.55
2018-03-11T02:46:56.099Z,6.61
2018-03-11T02:49:24.358Z,6.57
2018-03-11T02:51:52.610Z,6.52
2018-03-11T02:54:20.869Z,6.49
2018-03-11T02:56:49.120Z,6.51
2018-03-11T02:59:18.152Z,6.75
2018-03-11T03:01:46.408Z,6.76
2018-03-11T03:04:14.665Z,6.55
2018-03-11T03:06:43.676Z,6.79
2018-03-11T03:09:11.976Z,6.86
2018-03-11T03:11:40.231Z,6.77
2018-03-11T03:14:08.496Z,6.72
2018-03-11T03:16:36.744Z,6.79
2018-03-11T03:19:05.002Z,6.84
2018-03-11T03:21:33.280Z,6.85
2018-03-11T03:24:01.549Z,6.76
2018-03-11T03:26:29.804Z,6.86
2018-03-11T03:28:58.083Z,6.88
2018-03-11T03:31:26.345Z,6.82
2018-03-11T03:33:54.602Z,6.84
2018-03-11T03:36:22.862Z,6.75
2018-03-11T03:38:51.881Z,6.72
2018-03-11T03:41:20.136Z,6.68
2018-03-11T03:43:49.155Z,6.62
2018-03-11T03:46:17.419Z,6.48
2018-03-11T03:48:45.664Z,6.43
2018-03-11T03:51:14.697Z,6.46
2018-03-11T03:53:42.974Z,6.53
2018-03-11T03:56:11.236Z,6.53
2018-03-11T03:58:39.490Z,6.52
2018-03-11T04:01:08.510Z,6.43
2018-03-11T04:03:36.766Z,6.23
2018-03-11T04:06:05.792Z,5.95
2018-03-11T04:08:34.052Z,5.76
2018-03-11T04:11:02.318Z,6.09
2018-03-11T04:13:31.341Z,5.91
2018-03-11T04:15:59.612Z,5.90
2018-03-11T04:18:27.879Z,6.05
2018-03-11T04:20:56.135Z,6.06
2018-03-11T04:23:25.168Z,6.30
2018-03-11T04:25:54.151Z,6.27
2018-03-11T04:28:22.418Z,6.30
2018-03-11T04:30:50.661Z,6.37
2018-03-11T04:33:19.692Z,6.35
2018-03-11T04:35:47.937Z,6.33
2018-03-11T04:38:16.973Z,6.34
2018-03-11T04:40:45.218Z,6.38
2018-03-11T04:43:13.476Z,6.44
2018-03-11T04:45:42.494Z,6.51
2018-03-11T04:48:10.761Z,6.49
2018-03-11T04:50:39.020Z,6.57
2018-03-11T04:53:08.055Z,6.57
2018-03-11T04:55:36.303Z,6.59
2018-03-11T04:58:04.562Z,6.61
2018-03-11T05:00:33.584Z,6.76
2018-03-11T05:03:01.836Z,6.83
2018-03-11T05:05:30.850Z,6.90
2018-03-11T05:07:59.099Z,6.81
2018-03-11T05:10:28.128Z,6.56
2018-03-11T05:12:56.390Z,6.46
2018-03-11T05:15:24.649Z,6.23
2018-03-11T05:17:53.670Z,6.21
2018-03-11T05:20:21.919Z,6.25
2018-03-11T05:22:50.932Z,6.28
2018-03-11T05:25:19.187Z,6.38
2018-03-11T05:27:48.208Z,6.38
2018-03-11T05:30:16.464Z,6.16
2018-03-11T05:32:44.724Z,6.12
2018-03-11T05:35:13.748Z,6.08
2018-03-11T05:37:42.003Z,6.20
2018-03-11T05:40:11.021Z,6.46
2018-03-11T05:42:39.272Z,6.52
2018-03-11T05:45:08.288Z,6.57
2018-03-11T05:47:36.533Z,6.53
2018-03-11T05:50:05.565Z,6.57
2018-03-11T05:52:33.811Z,6.61
2018-03-11T05:55:02.848Z,6.60
2018-03-11T05:57:31.097Z,6.53
2018-03-11T05:59:59.351Z,6.55
2018-03-11T06:02:28.372Z,6.50
2018-03-11T06:04:56.610Z,6.54
2018-03-11T06:07:25.634Z,6.54
2018-03-11T06:09:53.896Z,6.52
2018-03-11T06:12:22.157Z,6.61
2018-03-11T06:14:51.168Z,6.60
2018-03-11T06:17:19.424Z,6.60
2018-03-11T06:19:48.437Z,6.52
2018-03-11T06:22:16.697Z,6.61
2018-03-11T06:24:45.714Z,6.68
2018-03-11T06:27:13.973Z,6.69
2018-03-11T06:29:42.994Z,6.81
2018-03-11T06:32:11.251Z,6.59
2018-03-11T06:34:40.268Z,6.64
2018-03-11T06:37:08.538Z,6.75
2018-03-11T06:39:36.780Z,6.78
2018-03-11T06:42:05.806Z,6.73
2018-03-11T06:44:34.042Z,6.79
2018-03-11T06:47:03.059Z,6.86
2018-03-11T06:49:31.307Z,6.84
2018-03-11T06:51:59.561Z,6.85
2018-03-11T06:54:27.797Z,6.95
2018-03-11T06:56:56.055Z,6.87
2018-03-11T06:59:24.309Z,7.01
2018-03-11T07:01:52.555Z,7.00
2018-03-11T07:04:20.813Z,7.02
2018-03-11T07:06:49.061Z,7.15
2018-03-11T07:09:17.309Z,7.19
2018-03-11T07:11:46.330Z,7.04
2018-03-11T07:14:14.578Z,7.06
2018-03-11T07:16:43.598Z,7.13
2018-03-11T07:19:11.884Z,7.35
2018-03-11T07:21:40.134Z,7.29
2018-03-11T07:24:09.148Z,7.45
2018-03-11T07:26:37.393Z,7.62
2018-03-11T07:29:06.420Z,7.53
2018-03-11T07:31:34.667Z,7.61
2018-03-11T07:34:03.698Z,7.73
2018-03-11T07:36:31.941Z,7.57
2018-03-11T07:39:00.963Z,7.67
2018-03-11T07:41:29.219Z,7.62
2018-03-11T07:43:57.472Z,7.80
2018-03-11T07:46:25.726Z,8.10
2018-03-11T07:48:53.987Z,8.14
2018-03-11T07:51:22.229Z,8.18
2018-03-11T07:53:50.485Z,8.19
2018-03-11T07:56:19.510Z,8.04
2018-03-11T07:58:47.749Z,8.03
2018-03-11T08:01:16.005Z,8.05
2018-03-11T08:03:44.258Z,8.31
2018-03-11T08:06:12.511Z,8.55
2018-03-11T08:08:40.756Z,8.55
2018-03-11T08:11:09.779Z,8.71
2018-03-11T08:13:38.021Z,8.88
2018-03-11T08:16:07.044Z,9.16
2018-03-11T08:18:35.287Z,9.22
2018-03-11T08:21:04.311Z,9.44
2018-03-11T08:23:32.555Z,9.83
2018-03-11T08:26:01.582Z,9.54
2018-03-11T08:28:29.826Z,9.90
2018-03-11T08:30:58.852Z,9.93
2018-03-11T08:33:27.107Z,10.16
2018-03-11T08:35:55.365Z,10.35
2018-03-11T08:38:24.390Z,10.34
2018-03-11T08:40:52.651Z,10.37
2018-03-11T08:43:20.902Z,10.44
2018-03-11T08:45:49.929Z,10.39
2018-03-11T08:48:18.188Z,10.62
2018-03-11T08:50:47.222Z,10.75
2018-03-11T08:53:15.475Z,10.57
2018-03-11T08:55:43.753Z,10.87
2018-03-11T08:58:12.002Z,10.92
2018-03-11T09:00:41.033Z,10.90
2018-03-11T09:03:09.292Z,11.06
2018-03-11T09:05:37.549Z,11.13
2018-03-11T09:08:06.579Z,11.34
2018-03-11T09:10:34.854Z,11.24
2018-03-11T09:13:03.101Z,11.22
2018-03-11T09:15:31.365Z,11.33
2018-03-11T09:18:00.399Z,11.44
2018-03-11T09:20:28.660Z,11.31
2018-03-11T09:22:57.057Z,11.37
2018-03-11T09:25:25.323Z,11.65
2018-03-11T09:27:53.589Z,11.49
2018-03-11T09:30:21.839Z,11.96
2018-03-11T09:32:50.862Z,12.24
2018-03-11T09:35:19.120Z,12.56
2018-03-11T09:37:48.149Z,12.69
2018-03-11T09:40:16.455Z,12.49
2018-03-11T09:42:44.717Z,12.89
2018-03-11T09:45:12.983Z,12.92
2018-03-11T09:47:41.233Z,13.21
2018-03-11T09:50:09.489Z,12.94
2018-03-11T09:52:38.508Z,12.77
2018-03-11T09:55:06.776Z,13.00
2018-03-11T09:57:35.027Z,13.31
2018-03-11T10:00:04.056Z,13.55
2018-03-11T10:02:32.302Z,13.50
2018-03-11T10:05:01.323Z,13.55
2018-03-11T10:07:29.578Z,13.24
2018-03-11T10:09:58.610Z,13.38
2018-03-11T10:12:26.861Z,13.47
2018-03-11T10:14:55.119Z,13.60
2018-03-11T10:17:24.140Z,13.76
2018-03-11T10:19:52.394Z,13.58
2018-03-11T10:22:20.710Z,13.47
2018-03-11T10:24:48.964Z,13.67
2018-03-11T10:27:17.292Z,13.57
2018-03-11T10:29:45.503Z,13.76
2018-03-11T10:32:13.866Z,14.36
2018-03-11T10:34:42.874Z,14.68
2018-03-11T10:37:11.238Z,14.69
2018-03-11T10:39:40.421Z,14.97
2018-03-11T10:42:09.446Z,15.78
2018-03-11T10:44:37.844Z,14.94
2018-03-11T10:47:06.169Z,15.26
2018-03-11T10:49:34.482Z,15.03
2018-03-11T10:52:02.822Z,14.65
2018-03-11T10:54:31.176Z,14.53
2018-03-11T10:56:59.449Z,14.79
2018-03-11T10:59:27.762Z,15.03
2018-03-11T11:02:01.660Z,14.96
2018-03-11T11:07:31.414Z,16.40
2018-03-11T11:10:00.496Z,16.41
2018-03-11T11:12:29.572Z,14.86
2018-03-11T11:14:57.931Z,15.73
2018-03-11T11:17:26.258Z,15.81
2018-03-11T11:19:54.563Z,15.39
2018-03-11T11:22:22.904Z,15.85
2018-03-11T11:24:51.961Z,16.18
2018-03-11T11:27:20.270Z,16.05
2018-03-11T11:29:48.561Z,15.28
2018-03-11T11:32:16.866Z,15.75
2018-03-11T11:34:45.176Z,15.53
2018-03-11T11:37:13.479Z,15.64
2018-03-11T11:39:42.532Z,14.95
2018-03-11T11:42:10.826Z,15.33
2018-03-11T11:44:39.126Z,15.93
2018-03-11T11:47:08.205Z,16.19
2018-03-11T11:49:36.536Z,16.47
2018-03-11T11:52:04.885Z,16.49
2018-03-11T11:54:33.989Z,16.77
2018-03-11T11:57:02.290Z,16.62
2018-03-11T11:59:30.626Z,17.82
2018-03-11T12:01:59.701Z,18.58
2018-03-11T12:04:28.031Z,17.37
2018-03-11T12:06:56.362Z,18.86
2018-03-11T12:09:24.696Z,17.55
2018-03-11T12:11:53.007Z,17.19
2018-03-11T12:14:21.322Z,17.45
2018-03-11T12:16:49.640Z,16.23
2018-03-11T12:19:17.954Z,17.11
2018-03-11T12:21:47.030Z,16.55
2018-03-11T12:24:15.334Z,16.24
2018-03-11T12:26:44.414Z,16.72
2018-03-11T12:29:12.702Z,16.94
2018-03-11T12:31:41.782Z,16.34
2018-03-11T12:34:10.859Z,16.72
2018-03-11T12:36:39.146Z,16.86
2018-03-11T12:39:07.454Z,16.40
2018-03-11T12:41:35.748Z,16.50
2018-03-11T12:44:04.068Z,16.76
2018-03-11T12:46:32.380Z,16.22
2018-03-11T12:49:01.434Z,17.19
2018-03-11T12:51:29.756Z,17.57
2018-03-11T12:53:58.072Z,16.85
2018-03-11T12:56:26.371Z,17.18
2018-03-11T12:58:54.690Z,17.97
2018-03-11T13:01:22.987Z,18.05
2018-03-11T13:03:51.289Z,19.04
2018-03-11T13:06:19.583Z,19.72
2018-03-11T13:08:47.898Z,19.41
2018-03-11T13:11:16.203Z,19.16
2018-03-11T13:13:44.489Z,19.29
2018-03-11T13:16:12.813Z,20.00
2018-03-11T13:18:41.860Z,18.48
2018-03-11T13:21:11.959Z,18.99
2018-03-11T13:23:40.266Z,18.89
2018-03-11T13:26:08.570Z,18.92
2018-03-11T13:28:47.412Z,18.53
2018-03-11T13:31:15.738Z,17.29
2018-03-11T13:34:01.855Z,17.60
2018-03-11T13:36:30.142Z,17.61
2018-03-11T13:39:16.858Z,17.93
2018-03-11T13:41:45.976Z,18.82
2018-03-11T13:44:15.599Z,18.79
2018-03-11T13:46:58.435Z,18.65
2018-03-11T13:49:26.691Z,18.27
2018-03-11T13:52:12.743Z,18.42
2018-03-11T13:54:40.991Z,18.27
2018-03-11T14:00:31.585Z,18.45
2018-03-11T14:03:00.609Z,18.17
2018-03-11T14:05:28.863Z,18.65
2018-03-11T14:07:57.145Z,18.96
2018-03-11T14:10:25.393Z,18.80
2018-03-11T14:12:53.633Z,19.03
2018-03-11T14:15:22.658Z,20.73
2018-03-11T14:17:50.896Z,23.01
2018-03-11T14:20:19.918Z,22.42
2018-03-11T14:22:48.172Z,23.60
2018-03-11T14:25:17.200Z,23.05
2018-03-11T14:27:45.443Z,23.31
2018-03-11T14:30:14.461Z,22.46
2018-03-11T14:32:42.712Z,23.17
2018-03-11T14:38:18.539Z,20.91
2018-03-11T14:40:46.860Z,20.54
2018-03-11T14:43:15.926Z,21.97
2018-03-11T14:45:44.247Z,22.49
2018-03-11T14:48:12.511Z,22.24
2018-03-11T14:50:41.574Z,21.83
2018-03-11T14:53:09.770Z,20.35
2018-03-11T14:55:38.816Z,20.07
2018-03-11T14:58:07.079Z,18.86
2018-03-11T15:00:35.549Z,17.64
2018-03-11T15:03:05.798Z,17.98
2018-03-11T15:05:34.201Z,18.21
2018-03-11T15:08:02.521Z,18.31
2018-03-11T15:10:30.893Z,18.23
2018-03-11T15:13:00.289Z,17.94
2018-03-11T15:15:29.333Z,17.63
2018-03-11T15:17:57.675Z,17.37
2018-03-11T15:20:26.730Z,17.35
2018-03-11T15:22:55.126Z,17.36
2018-03-11T15:25:24.210Z,17.31
2018-03-11T15:27:53.338Z,17.24
2018-03-11T15:30:21.646Z,17.12
2018-03-11T15:32:49.988Z,17.16
2018-03-11T15:35:18.385Z,16.76
2018-03-11T15:37:46.749Z,16.74
2018-03-11T15:40:16.283Z,16.71
2018-03-11T15:42:44.606Z,16.62
2018-03-11T15:45:13.715Z,16.56
2018-03-11T15:47:42.047Z,16.54
2018-03-11T15:50:10.377Z,16.51
2018-03-11T15:52:38.653Z,16.54
2018-03-11T15:55:06.904Z,16.44
2018-03-11T15:57:35.944Z,16.42
2018-03-11T16:00:04.196Z,16.47
2018-03-11T16:02:32.447Z,16.33
2018-03-11T16:05:00.707Z,16.38
2018-03-11T16:07:28.967Z,16.38
2018-03-11T16:09:57.221Z,16.14
2018-03-11T16:12:25.471Z,15.98
2018-03-11T16:14:53.723Z,15.97
2018-03-11T16:17:22.749Z,15.92
2018-03-11T16:19:51.011Z,15.78
2018-03-11T16:22:20.028Z,15.72
2018-03-11T16:24:48.276Z,15.73
2018-03-11T16:27:17.292Z,15.66
2018-03-11T16:29:45.550Z,15.41
2018-03-11T16:32:13.798Z,15.44
2018-03-11T16:34:42.043Z,15.54
2018-03-11T16:37:10.363Z,15.63
2018-03-11T16:39:39.393Z,15.34
2018-03-11T16:42:07.643Z,15.21
2018-03-11T16:44:36.659Z,15.28
2018-03-11T16:47:04.907Z,15.10
2018-03-11T16:49:33.921Z,15.03
2018-03-11T16:52:02.178Z,14.87
2018-03-11T16:54:31.204Z,14.72
2018-03-11T16:56:59.453Z,14.53
2018-03-11T16:59:27.701Z,14.42
2018-03-11T17:01:55.951Z,14.37
2018-03-11T17:04:24.201Z,14.33
2018-03-11T17:06:52.456Z,14.30
2018-03-11T17:09:22.809Z,14.26
2018-03-11T17:11:51.078Z,14.47
2018-03-11T17:14:19.332Z,14.31
2018-03-11T17:16:47.599Z,14.27
2018-03-11T17:19:16.667Z,14.23
2018-03-11T17:21:44.871Z,14.19
2018-03-11T17:24:13.117Z,14.17
2018-03-11T17:26:41.402Z,14.15
2018-03-11T17:29:09.642Z,14.08
2018-03-11T17:31:37.893Z,14.11
2018-03-11T17:34:06.159Z,14.06
2018-03-11T17:36:34.390Z,14.04
2018-03-11T17:39:02.649Z,13.98
2018-03-11T17:41:30.909Z,13.93
2018-03-11T17:43:59.174Z,13.95
2018-03-11T17:46:27.412Z,13.90
2018-03-11T17:48:56.426Z,13.85
2018-03-11T17:51:24.670Z,13.87
2018-03-11T17:53:53.706Z,13.82
2018-03-11T17:56:21.938Z,13.75
2018-03-11T17:58:50.204Z,13.78
2018-03-11T18:01:18.493Z,13.67
2018-03-11T18:03:46.707Z,13.66
2018-03-11T18:06:14.954Z,13.52
2018-03-11T18:08:43.994Z,13.50
2018-03-11T18:11:12.235Z,13.49
2018-03-11T18:13:40.482Z,13.51
2018-03-11T18:16:09.508Z,13.44
2018-03-11T18:18:37.778Z,13.28
2018-03-11T18:21:06.035Z,13.35
2018-03-11T18:23:35.065Z,13.35
2018-03-11T18:26:03.573Z,13.35
2018-03-11T18:28:31.917Z,13.27
2018-03-11T18:31:00.189Z,13.16
2018-03-11T18:33:28.453Z,13.05
2018-03-11T18:35:56.711Z,12.96
2018-03-11T18:38:25.722Z,12.89
2018-03-11T18:40:53.978Z,12.83
2018-03-11T18:43:22.990Z,12.87
2018-03-11T18:45:51.475Z,12.85
2018-03-11T18:48:19.728Z,12.84
2018-03-11T18:50:47.971Z,12.82
2018-03-11T18:53:16.232Z,12.82
2018-03-11T18:55:44.476Z,12.73
2018-03-11T18:58:12.730Z,12.71
2018-03-11T19:00:41.755Z,12.69
2018-03-11T19:03:10.717Z,12.65
2018-03-11T19:08:12.605Z,12.63
2018-03-11T19:10:40.867Z,12.60
2018-03-11T19:13:09.882Z,12.55
2018-03-11T19:15:38.153Z,12.48
2018-03-11T19:18:06.436Z,12.47
2018-03-11T19:20:34.699Z,12.53
2018-03-11T19:23:03.709Z,12.41
2018-03-11T19:25:31.967Z,12.43
2018-03-11T19:28:00.982Z,12.34
2018-03-11T19:30:29.234Z,12.25
2018-03-11T19:32:58.245Z,12.25
2018-03-11T19:35:26.506Z,12.14
2018-03-11T19:37:55.517Z,12.10
2018-03-11T19:40:23.804Z,12.06
2018-03-11T19:42:52.050Z,12.06
2018-03-11T19:45:21.071Z,12.08
2018-03-11T19:47:49.324Z,11.98
2018-03-11T19:50:18.341Z,11.97
2018-03-11T19:52:46.586Z,11.95
2018-03-11T19:55:15.601Z,11.94
2018-03-11T19:57:43.846Z,11.91
2018-03-11T20:00:12.862Z,11.86
2018-03-11T20:02:41.103Z,11.84
2018-03-11T20:05:09.360Z,11.85
2018-03-11T20:07:37.608Z,11.83
2018-03-11T20:10:05.858Z,11.87
2018-03-11T20:12:34.114Z,11.84
2018-03-11T20:15:03.126Z,11.83
2018-03-11T20:17:31.382Z,11.80
2018-03-11T20:20:00.401Z,11.81
2018-03-11T20:22:28.658Z,11.85
2018-03-11T20:24:57.669Z,11.82
2018-03-11T20:27:25.925Z,11.75
2018-03-11T20:29:54.932Z,11.69
2018-03-11T20:32:23.190Z,11.73
2018-03-11T20:34:52.202Z,11.68
2018-03-11T20:37:20.453Z,11.62
2018-03-11T20:39:49.472Z,11.75
2018-03-11T20:42:17.732Z,11.71
2018-03-11T20:44:46.734Z,11.73
2018-03-11T20:47:14.990Z,11.77
2018-03-11T20:49:44.007Z,11.80
2018-03-11T20:52:12.262Z,11.71
2018-03-11T20:54:41.272Z,11.66
2018-03-11T20:57:09.534Z,11.72
2018-03-11T20:59:38.542Z,11.82
2018-03-11T21:02:06.797Z,11.76
2018-03-11T21:04:35.814Z,11.61
2018-03-11T21:07:04.074Z,11.65
2018-03-11T21:09:33.099Z,11.60
2018-03-11T21:12:01.352Z,11.49
2018-03-11T21:14:29.609Z,11.40
2018-03-11T21:16:58.633Z,11.46
2018-03-11T21:19:26.881Z,11.37
2018-03-11T21:21:55.897Z,11.36
2018-03-11T21:24:25.092Z,11.37
2018-03-11T21:26:54.106Z,11.38
2018-03-11T21:29:22.358Z,11.32
2018-03-11T21:31:51.382Z,11.29
2018-03-11T21:34:19.638Z,11.29
2018-03-11T21:36:47.881Z,11.14
2018-03-11T21:39:16.137Z,11.03
2018-03-11T21:41:44.385Z,11.06
2018-03-11T21:44:12.641Z,11.01
2018-03-11T21:46:40.889Z,10.91
2018-03-11T21:49:09.907Z,10.84
2018-03-11T21:51:38.150Z,10.83
2018-03-11T21:54:07.177Z,10.87
2018-03-11T21:56:35.427Z,10.77
2018-03-11T21:59:04.447Z,10.79
2018-03-11T22:01:32.694Z,10.85
2018-03-11T22:04:01.707Z,10.92
2018-03-11T22:06:29.960Z,10.86
2018-03-11T22:08:58.211Z,10.88
2018-03-11T22:11:26.462Z,10.66
2018-03-11T22:13:54.733Z,10.55
2018-03-11T22:16:22.975Z,10.48
2018-03-11T22:18:51.236Z,10.36
2018-03-11T22:23:54.765Z,10.45
2018-03-11T22:26:23.010Z,10.54
2018-03-11T22:28:51.266Z,10.55
2018-03-11T22:31:19.515Z,10.59
2018-03-11T22:33:47.772Z,10.61
2018-03-11T22:36:16.022Z,10.62
2018-03-11T22:38:44.290Z,10.53
2018-03-11T22:41:12.529Z,10.42
2018-03-11T22:43:40.778Z,10.37
2018-03-11T22:46:09.044Z,10.29
2018-03-11T22:48:38.050Z,10.13
2018-03-11T22:51:06.311Z,10.39
2018-03-11T22:53:35.387Z,10.64
2018-03-11T22:56:03.691Z,10.62
2018-03-11T22:58:31.901Z,10.87
2018-03-11T23:01:00.150Z,10.90
2018-03-11T23:03:28.397Z,10.87
2018-03-11T23:05:57.413Z,10.91
2018-03-11T23:08:25.667Z,11.00
2018-03-11T23:10:54.683Z,10.72
2018-03-11T23:13:22.925Z,10.71
2018-03-11T23:15:51.955Z,10.42
2018-03-11T23:18:20.203Z,10.01
2018-03-11T23:20:49.217Z,10.18
2018-03-11T23:23:17.461Z,10.40
2018-03-11T23:25:45.721Z,10.39
2018-03-11T23:28:13.970Z,10.55
2018-03-11T23:30:42.227Z,10.63
2018-03-11T23:33:10.466Z,10.56
2018-03-11T23:35:39.490Z,10.62
2018-03-11T23:38:07.744Z,10.60
2018-03-11T23:40:36.755Z,10.61
2018-03-11T23:43:05.002Z,10.63
2018-03-11T23:45:34.030Z,10.71
2018-03-11T23:48:02.279Z,10.64
2018-03-11T23:50:30.538Z,10.47
2018-03-11T23:52:58.785Z,10.57
2018-03-11T23:55:27.047Z,10.04
2018-03-11T23:57:55.290Z,9.94
